createdAt,value
2023-05-23T00:01:45.527Z,21.00
2023-05-23T00:12:04.288Z,21.00
2023-05-23T00:17:02.839Z,21.00
2023-05-23T00:22:00.915Z,20.90
2023-05-23T00:26:59.174Z,20.80
2023-05-23T00:31:58.815Z,20.80
2023-05-23T00:36:58.329Z,20.70
2023-05-23T00:41:56.612Z,20.60
2023-05-23T00:46:57.516Z,20.50
2023-05-23T00:51:57.817Z,20.50
2023-05-23T00:56:56.817Z,20.40
2023-05-23T01:01:57.791Z,20.30
2023-05-23T01:06:58.012Z,20.30
2023-05-23T01:12:05.767Z,20.20
2023-05-23T01:17:12.227Z,20.10
2023-05-23T01:22:18.301Z,20.00
2023-05-23T01:27:28.170Z,20.00
2023-05-23T01:32:29.990Z,20.00
2023-05-23T01:37:30.299Z,19.90
2023-05-23T01:42:28.542Z,19.90
2023-05-23T01:47:28.589Z,19.90
2023-05-23T01:52:27.309Z,20.00
2023-05-23T01:57:27.558Z,20.00
2023-05-23T02:02:27.376Z,19.90
2023-05-23T02:07:26.658Z,19.80
2023-05-23T02:12:24.954Z,19.70
2023-05-23T02:17:24.352Z,19.60
2023-05-23T02:22:25.942Z,19.60
2023-05-23T02:27:24.236Z,19.70
2023-05-23T02:32:22.344Z,19.80
2023-05-23T02:37:20.621Z,19.80
2023-05-23T02:42:20.989Z,19.70
2023-05-23T02:47:19.293Z,19.70
2023-05-23T02:52:18.138Z,19.70
2023-05-23T02:57:16.490Z,19.70
2023-05-23T03:02:16.157Z,19.70
2023-05-23T03:07:27.684Z,19.70
2023-05-23T03:12:27.277Z,19.70
2023-05-23T03:17:27.912Z,19.60
2023-05-23T03:22:28.610Z,19.50
2023-05-23T03:27:26.949Z,19.50
2023-05-23T03:32:25.196Z,19.60
2023-05-23T03:37:24.761Z,19.60
2023-05-23T03:42:23.180Z,19.60
2023-05-23T03:47:22.206Z,19.60
2023-05-23T03:52:21.900Z,19.60
2023-05-23T03:57:21.637Z,19.50
2023-05-23T04:02:20.780Z,19.50
2023-05-23T04:07:19.461Z,19.50
2023-05-23T04:12:18.543Z,19.30
2023-05-23T04:17:18.751Z,19.10
2023-05-23T04:22:17.098Z,19.00
2023-05-23T04:27:16.839Z,19.20
2023-05-23T04:32:16.894Z,19.30
2023-05-23T04:37:17.567Z,19.40
2023-05-23T04:42:16.030Z,19.60
2023-05-23T04:47:40.224Z,19.60
2023-05-23T04:52:41.714Z,19.60
2023-05-23T04:57:41.476Z,19.40
2023-05-23T05:02:40.588Z,19.40
2023-05-23T05:07:39.444Z,19.30
2023-05-23T05:12:40.739Z,19.30
2023-05-23T05:17:39.226Z,19.30
2023-05-23T05:22:57.297Z,19.30
2023-05-23T05:27:56.912Z,19.40
2023-05-23T05:33:02.236Z,19.30
2023-05-23T05:38:00.792Z,19.40
2023-05-23T05:43:00.589Z,19.30
2023-05-23T05:48:00.254Z,19.30
2023-05-23T05:52:58.881Z,19.40
2023-05-23T05:57:57.242Z,19.40
2023-05-23T06:02:58.996Z,19.40
2023-05-23T06:08:13.695Z,19.50
2023-05-23T06:13:12.043Z,19.60
2023-05-23T06:18:13.992Z,19.70
2023-05-23T06:23:12.485Z,19.60
2023-05-23T06:28:11.720Z,19.50
2023-05-23T06:33:10.127Z,19.40
2023-05-23T06:38:10.184Z,19.40
2023-05-23T06:43:08.492Z,19.70
2023-05-23T06:48:17.269Z,20.10
2023-05-23T06:53:19.328Z,20.20
2023-05-23T06:58:19.201Z,20.30
2023-05-23T07:03:17.920Z,20.30
2023-05-23T07:08:18.045Z,20.40
2023-05-23T07:13:28.074Z,20.30
2023-05-23T07:18:26.807Z,20.30
2023-05-23T07:23:27.450Z,20.40
2023-05-23T07:28:25.657Z,20.30
2023-05-23T07:33:26.123Z,20.50
2023-05-23T07:38:31.310Z,20.60
2023-05-23T07:43:29.816Z,20.70
2023-05-23T07:48:28.053Z,21.00
2023-05-23T07:53:27.564Z,21.10
2023-05-23T07:58:27.252Z,21.10
2023-05-23T08:03:25.793Z,21.20
2023-05-23T08:08:34.517Z,21.20
2023-05-23T08:13:34.285Z,21.80
2023-05-23T08:18:51.206Z,22.00
2023-05-23T08:23:49.693Z,22.10
2023-05-23T08:28:49.394Z,22.50
2023-05-23T08:33:48.263Z,22.40
2023-05-23T08:38:46.720Z,22.80
2023-05-23T08:43:56.242Z,23.10
2023-05-23T08:49:01.300Z,23.20
2023-05-23T08:54:04.125Z,23.00
2023-05-23T08:59:04.282Z,23.00
2023-05-23T09:04:05.099Z,23.40
2023-05-23T09:09:13.038Z,23.20
2023-05-23T09:14:14.711Z,23.40
2023-05-23T09:19:15.040Z,23.40
2023-05-23T09:24:20.877Z,24.00
2023-05-23T09:29:22.604Z,24.60
2023-05-23T09:34:20.838Z,24.70
2023-05-23T09:39:19.394Z,24.20
2023-05-23T09:44:25.782Z,23.60
2023-05-23T09:49:24.189Z,22.70
2023-05-23T09:54:22.541Z,22.60
2023-05-23T09:59:24.398Z,22.80
2023-05-23T10:04:26.168Z,22.50
2023-05-23T10:09:28.218Z,22.00
2023-05-23T10:14:30.392Z,21.90
2023-05-23T10:19:37.190Z,22.40
2023-05-23T10:24:36.893Z,22.70
2023-05-23T10:29:36.592Z,22.80
2023-05-23T10:34:43.166Z,21.80
2023-05-23T10:39:53.177Z,21.10
2023-05-23T10:44:51.382Z,20.80
2023-05-23T10:49:54.552Z,20.80
2023-05-23T10:54:53.676Z,20.90
2023-05-23T10:59:52.475Z,21.00
2023-05-23T11:05:21.749Z,20.60
2023-05-23T11:10:20.985Z,20.10
2023-05-23T11:15:22.628Z,19.90
2023-05-23T11:20:24.613Z,19.80
2023-05-23T11:25:23.699Z,19.60
2023-05-23T11:30:21.941Z,19.50
2023-05-23T11:35:22.774Z,19.20
2023-05-23T11:40:29.491Z,18.90
2023-05-23T11:45:28.816Z,18.90
2023-05-23T11:50:28.291Z,19.00
2023-05-23T11:55:26.595Z,19.10
2023-05-23T12:00:24.898Z,19.30
2023-05-23T12:05:23.163Z,19.20
2023-05-23T12:10:28.142Z,19.40
2023-05-23T12:15:28.324Z,19.70
2023-05-23T12:20:28.312Z,19.90
2023-05-23T12:25:27.935Z,19.60
2023-05-23T12:30:26.196Z,19.60
2023-05-23T12:35:27.273Z,19.60
2023-05-23T12:40:25.429Z,19.90
2023-05-23T12:45:31.928Z,20.10
2023-05-23T12:50:31.094Z,20.00
2023-05-23T12:55:29.351Z,20.00
2023-05-23T13:00:28.949Z,20.10
2023-05-23T13:05:27.582Z,20.30
2023-05-23T13:10:25.909Z,20.40
2023-05-23T13:15:24.231Z,20.60
2023-05-23T13:20:23.833Z,20.40
2023-05-23T13:25:22.070Z,20.30
2023-05-23T13:30:20.748Z,20.10
2023-05-23T13:35:19.021Z,19.80
2023-05-23T13:40:21.827Z,19.40
2023-05-23T13:45:20.058Z,19.00
2023-05-23T13:50:19.026Z,18.80
2023-05-23T13:55:17.529Z,18.40
2023-05-23T14:00:18.145Z,18.30
2023-05-23T14:05:16.596Z,18.40
2023-05-23T14:10:15.455Z,18.60
2023-05-23T14:15:13.922Z,18.90
2023-05-23T14:20:14.449Z,18.70
2023-05-23T14:25:12.554Z,18.40
2023-05-23T14:30:11.912Z,18.40
2023-05-23T14:35:13.051Z,18.30
2023-05-23T14:40:11.696Z,18.30
2023-05-23T14:45:10.395Z,18.30
2023-05-23T14:50:09.921Z,18.30
2023-05-23T14:55:10.411Z,18.20
2023-05-23T15:00:10.406Z,18.00
2023-05-23T15:05:09.463Z,18.00
2023-05-23T15:10:10.175Z,17.90
2023-05-23T15:15:09.359Z,17.70
2023-05-23T15:20:10.176Z,17.50
2023-05-23T15:25:11.259Z,17.20
2023-05-23T15:30:10.444Z,17.00
2023-05-23T15:35:09.405Z,17.00
2023-05-23T15:40:08.630Z,17.10
2023-05-23T15:45:09.556Z,17.10
2023-05-23T15:50:08.865Z,17.10
2023-05-23T15:55:08.121Z,16.90
2023-05-23T16:00:09.761Z,16.70
2023-05-23T16:05:11.230Z,16.60
2023-05-23T16:10:10.026Z,16.50
2023-05-23T16:15:10.970Z,16.50
2023-05-23T16:20:10.083Z,16.50
2023-05-23T16:25:09.456Z,16.50
2023-05-23T16:30:10.740Z,16.40
2023-05-23T16:35:11.119Z,16.20
2023-05-23T16:40:10.827Z,15.90
2023-05-23T16:45:11.030Z,15.80
2023-05-23T16:50:09.759Z,15.80
2023-05-23T16:55:08.340Z,15.60
2023-05-23T17:00:07.719Z,15.50
2023-05-23T17:05:08.341Z,15.40
2023-05-23T17:10:07.355Z,15.30
2023-05-23T17:15:07.318Z,15.30
2023-05-23T17:20:08.710Z,15.30
2023-05-23T17:25:07.541Z,15.30
2023-05-23T17:30:08.241Z,15.10
2023-05-23T17:35:08.718Z,15.00
2023-05-23T17:40:07.689Z,14.90
2023-05-23T17:45:06.956Z,14.90
2023-05-23T17:50:06.227Z,14.80
2023-05-23T17:55:06.533Z,14.70
2023-05-23T18:00:05.929Z,14.60
2023-05-23T18:05:11.246Z,14.60
2023-05-23T18:10:11.781Z,14.60
2023-05-23T18:15:11.343Z,14.60
2023-05-23T18:20:10.166Z,14.60
2023-05-23T18:25:10.879Z,14.60
2023-05-23T18:30:10.010Z,14.70
2023-05-23T18:35:09.028Z,14.70
2023-05-23T18:40:09.699Z,14.80
2023-05-23T18:45:10.872Z,14.80
2023-05-23T18:50:09.552Z,14.80
2023-05-23T18:55:08.933Z,14.60
2023-05-23T19:00:10.212Z,14.60
2023-05-23T19:05:08.894Z,14.60
2023-05-23T19:10:08.153Z,14.70
2023-05-23T19:15:07.642Z,14.80
2023-05-23T19:20:08.543Z,14.80
2023-05-23T19:25:08.163Z,14.90
2023-05-23T19:30:07.620Z,14.90
2023-05-23T19:35:08.398Z,14.90
2023-05-23T19:40:07.945Z,14.90
2023-05-23T19:45:07.692Z,14.80
2023-05-23T19:50:10.033Z,14.70
2023-05-23T19:55:09.193Z,14.70
2023-05-23T20:00:09.991Z,14.60
2023-05-23T20:05:10.620Z,14.50
2023-05-23T20:10:09.615Z,14.40
2023-05-23T20:15:09.069Z,14.30
2023-05-23T20:20:10.445Z,14.20
2023-05-23T20:25:10.491Z,14.00
2023-05-23T20:30:10.330Z,13.90
2023-05-23T20:35:10.450Z,13.90
2023-05-23T20:40:10.026Z,13.90
2023-05-23T20:45:09.690Z,13.80
2023-05-23T20:50:10.644Z,13.80
2023-05-23T20:55:09.510Z,13.80
2023-05-23T21:00:12.617Z,13.70
2023-05-23T21:05:12.961Z,13.60
2023-05-23T21:10:11.574Z,13.40
2023-05-23T21:15:10.768Z,13.20
2023-05-23T21:20:10.830Z,13.20
2023-05-23T21:25:10.852Z,13.20
2023-05-23T21:30:10.393Z,13.20
2023-05-23T21:35:08.993Z,13.00
2023-05-23T21:40:08.837Z,12.90
2023-05-23T21:45:09.661Z,12.70
2023-05-23T21:50:09.052Z,12.60
2023-05-23T21:55:07.389Z,12.50
2023-05-23T22:00:06.379Z,12.50
2023-05-23T22:05:13.329Z,12.50
2023-05-23T22:10:12.174Z,12.50
2023-05-23T22:15:11.323Z,12.40
2023-05-23T22:20:14.667Z,12.40
2023-05-23T22:25:12.922Z,12.50
2023-05-23T22:30:12.245Z,12.40
2023-05-23T22:35:12.186Z,12.30
2023-05-23T22:40:11.203Z,12.20
2023-05-23T22:45:10.271Z,12.10
2023-05-23T22:50:09.450Z,12.10
2023-05-23T22:55:10.194Z,12.00
2023-05-23T23:00:11.207Z,11.80
2023-05-23T23:05:12.033Z,11.80
2023-05-23T23:10:12.176Z,11.80
2023-05-23T23:15:10.904Z,11.80
2023-05-23T23:20:12.640Z,11.90
2023-05-23T23:25:12.549Z,11.80
2023-05-23T23:30:11.441Z,11.80
2023-05-23T23:35:10.207Z,11.70
2023-05-23T23:40:09.863Z,11.60
2023-05-23T23:45:11.158Z,11.60
2023-05-23T23:50:10.304Z,11.50
2023-05-23T23:55:09.272Z,11.40
